.
WxDataArchive / Data Records for 2014-02-16
2014-02-15 February 2014 2014-02-17

Data Records for Sunday, 16 February 2014

Time	Temp	Chill	HIndex	Humid	Dewpt	 Wind 	HiWind	WindDir	Rain 	Barom 
-----	----	-----	------	-----	-----	------	------	-------	-----	----- 
00:00	15.7	15.7	15.7	73	8.6	0	0	---	0.00	30.048 
00:05	15.6	15.6	15.6	73	8.5	0	0	---	0.00	30.048 
00:10	15.6	15.6	15.6	73	8.5	0	1	270	0.00	30.048 
00:15	15.4	15.4	15.4	73	8.3	0	0	---	0.00	30.047 
00:20	15.4	15.4	15.4	73	8.3	0	0	---	0.00	30.047 
00:25	15.2	15.2	15.2	73	8.1	0	0	---	0.00	30.047 
00:30	15.2	15.2	15.2	73	8.1	0	0	---	0.00	30.041 
00:35	15.2	15.2	15.2	73	8.1	0	0	---	0.00	30.041 
00:40	15.2	15.2	15.2	73	8.1	0	0	---	0.00	30.041 
00:45	15.2	15.2	15.2	73	8.1	0	0	---	0.00	30.039 
00:50	15.2	15.2	15.2	73	8.1	0	0	---	0.00	30.039 
00:55	15.2	15.2	15.2	73	8.1	0	0	---	0.00	30.039 
01:00	15.4	15.4	15.4	73	8.3	0	0	---	0.00	30.040 
01:05	15.4	15.4	15.4	73	8.3	0	0	---	0.00	30.040 
01:10	15.6	15.6	15.6	73	8.5	0	0	---	0.00	30.040 
01:15	15.7	15.7	15.7	73	8.6	0	0	---	0.00	30.037 
01:20	15.7	15.7	15.7	73	8.6	0	0	---	0.00	30.037 
01:25	15.9	15.9	15.9	74	9.1	0	1	270	0.00	30.037 
01:30	15.9	15.9	15.9	74	9.1	0	1	270	0.00	30.019 
01:35	15.9	15.9	15.9	75	9.4	0	1	270	0.00	30.019 
01:40	16.1	16.1	16.1	75	9.6	0	0	---	0.00	30.019 
01:45	16.1	16.1	16.1	75	9.6	0	1	270	0.00	30.010 
01:50	16.1	16.1	16.1	75	9.6	0	1	270	0.00	30.010 
01:55	16.1	16.1	16.1	76	9.9	0	1	270	0.00	30.010 
02:00	15.9	15.9	15.9	76	9.7	0	0	---	0.00	30.012 
02:05	15.9	15.9	15.9	76	9.7	0	1	270	0.00	30.012 
02:10	15.9	15.9	15.9	76	9.7	0	1	270	0.00	30.012 
02:15	16.1	16.1	16.1	77	10.2	0	1	270	0.00	29.996 
02:20	16.2	16.2	16.2	77	10.3	0	1	270	0.00	29.996 
02:25	16.2	16.2	16.2	77	10.3	0	0	---	0.00	29.996 
02:30	16.2	16.2	16.2	78	10.6	0	0	---	0.00	29.998 
02:35	16.4	16.4	16.4	79	11.0	0	1	270	0.00	29.998 
02:40	16.5	16.5	16.5	79	11.1	0	2	270	0.00	29.998 
02:45	16.5	16.5	16.5	80	11.4	0	0	---	0.00	29.996 
02:50	16.5	16.5	16.5	80	11.4	0	0	---	0.00	29.996 
02:55	16.5	16.5	16.5	80	11.4	0	0	---	0.00	29.996 
03:00	16.7	16.7	16.7	80	11.6	0	0	---	0.00	29.991 
03:05	16.7	16.7	16.7	81	11.9	0	0	---	0.00	29.991 
03:10	16.7	16.7	16.7	81	11.9	0	0	---	0.00	29.991 
03:15	16.9	16.9	16.9	81	12.1	0	0	---	0.00	29.995 
03:20	16.9	16.9	16.9	81	12.1	0	0	---	0.00	29.995 
03:25	16.9	16.9	16.9	81	12.1	0	0	---	0.00	29.995 
03:30	16.9	16.9	16.9	81	12.1	0	0	---	0.00	29.990 
03:35	17.0	17.0	17.0	81	12.2	0	0	---	0.00	29.990 
03:40	17.0	17.0	17.0	81	12.2	0	0	---	0.00	29.990 
03:45	17.0	17.0	17.0	82	12.5	0	0	---	0.00	29.985 
03:50	17.2	17.2	17.2	82	12.7	0	0	---	0.00	29.985 
03:55	17.2	17.2	17.2	82	12.7	0	0	---	0.00	29.985 
04:00	17.2	17.2	17.2	82	12.7	0	0	---	0.00	29.983 
04:05	17.2	17.2	17.2	82	12.7	0	0	---	0.00	29.983 
04:10	17.2	17.2	17.2	82	12.7	0	0	---	0.00	29.983 
04:15	17.2	17.2	17.2	82	12.7	0	1	270	0.00	29.976 
04:20	17.2	17.2	17.2	82	12.7	0	1	270	0.00	29.976 
04:25	17.2	17.2	17.2	82	12.7	0	1	270	0.00	29.976 
04:30	17.2	17.2	17.2	82	12.7	0	1	270	0.00	29.968 
04:35	17.2	17.2	17.2	82	12.7	0	0	---	0.00	29.968 
04:40	17.2	17.2	17.2	82	12.7	0	1	270	0.00	29.968 
04:45	17.2	17.2	17.2	83	12.9	0	1	270	0.00	29.965 
04:50	17.2	17.2	17.2	82	12.7	0	1	270	0.00	29.965 
04:55	17.2	17.2	17.2	82	12.7	0	1	270	0.00	29.965 
05:00	17.0	17.0	17.0	83	12.7	0	1	270	0.00	29.959 
05:05	17.0	17.0	17.0	82	12.5	0	1	270	0.00	29.959 
05:10	17.0	17.0	17.0	83	12.7	0	1	270	0.00	29.959 
05:15	17.0	17.0	17.0	83	12.7	0	1	270	0.00	29.967 
05:20	17.0	17.0	17.0	83	12.7	0	0	---	0.00	29.967 
05:25	17.0	17.0	17.0	83	12.7	0	0	---	0.00	29.967 
05:30	17.0	17.0	17.0	83	12.7	0	1	270	0.00	29.966 
05:35	17.2	17.2	17.2	83	12.9	0	0	---	0.00	29.966 
05:40	17.2	17.2	17.2	83	12.9	0	1	270	0.00	29.966 
05:45	17.2	17.2	17.2	83	12.9	0	2	270	0.00	29.956 
05:50	17.2	17.2	17.2	83	12.9	1	2	270	0.00	29.956 
05:55	17.3	17.3	17.3	83	13.0	1	3	270	0.00	29.956 
06:00	17.3	17.3	17.3	83	13.0	0	3	270	0.00	29.951 
06:05	17.3	17.3	17.3	84	13.3	0	0	---	0.00	29.951 
06:10	17.3	17.3	17.3	83	13.0	0	1	270	0.00	29.951 
06:15	17.3	17.3	17.3	84	13.3	0	1	270	0.00	29.959 
06:20	17.3	17.3	17.3	84	13.3	0	0	---	0.00	29.959 
06:25	17.3	17.3	17.3	84	13.3	0	0	---	0.00	29.959 
06:30	17.3	17.3	17.3	84	13.3	0	0	---	0.00	29.958 
06:35	17.3	17.3	17.3	84	13.3	0	0	---	0.00	29.958 
06:40	17.3	17.3	17.3	84	13.3	0	0	---	0.00	29.958 
06:45	17.3	17.3	17.3	84	13.3	0	0	---	0.00	29.958 
06:50	17.5	17.5	17.5	84	13.5	0	0	---	0.00	29.958 
06:55	17.5	17.5	17.5	84	13.5	0	0	---	0.00	29.958 
07:00	17.5	17.5	17.5	84	13.5	0	0	---	0.00	29.966 
07:05	17.7	17.7	17.7	84	13.7	0	0	---	0.00	29.966 
07:10	17.7	17.7	17.7	84	13.7	0	0	---	0.00	29.966 
07:15	17.8	17.8	17.8	84	13.8	0	0	---	0.00	29.973 
07:20	18.0	18.0	18.0	84	14.0	0	0	---	0.00	29.973 
07:25	18.0	18.0	18.0	84	14.0	0	0	---	0.00	29.973 
07:30	18.1	18.1	18.1	84	14.1	0	0	---	0.00	29.972 
07:35	18.1	18.1	18.1	84	14.1	0	0	---	0.00	29.972 
07:40	18.3	18.3	18.3	84	14.3	0	0	---	0.00	29.972 
07:45	18.4	18.4	18.4	85	14.7	0	0	---	0.00	29.980 
07:50	18.6	18.6	18.6	85	14.9	0	0	---	0.00	29.980 
07:55	18.8	18.8	18.8	85	15.1	0	0	---	0.00	29.980 
08:00	18.9	18.9	18.9	85	15.2	0	0	---	0.00	29.995 
08:05	19.2	19.2	19.2	85	15.4	0	0	---	0.00	29.995 
08:10	19.5	19.5	19.5	85	15.7	0	0	---	0.00	29.995 
08:15	19.9	19.9	19.9	86	16.4	0	1	270	0.00	30.003 
08:20	20.2	20.2	20.2	86	16.7	0	1	270	0.00	30.003 
08:25	20.6	20.6	20.6	86	17.1	0	2	270	0.00	30.003 
08:30	20.8	20.8	20.8	86	17.3	0	1	270	0.00	30.010 
08:35	21.0	21.0	21.0	86	17.5	0	1	270	0.00	30.010 
08:40	21.1	21.1	21.1	86	17.6	0	3	270	0.00	30.010 
08:45	21.1	21.1	21.1	86	17.6	1	3	270	0.00	30.019 
08:50	21.3	21.3	21.3	85	17.5	1	4	270	0.00	30.019 
08:55	21.3	21.3	21.3	85	17.5	1	3	292	0.00	30.019 
09:00	21.3	21.3	21.3	85	17.5	1	3	270	0.00	30.023 
09:05	21.3	21.3	21.3	85	17.5	0	4	270	0.00	30.023 
09:10	21.1	21.1	21.1	84	17.0	2	6	315	0.00	30.023 
09:15	21.1	21.1	21.1	84	17.0	1	4	338	0.00	30.030 
09:20	21.1	21.1	21.1	84	17.0	1	3	338	0.00	30.030 
09:25	21.1	21.1	21.1	84	17.0	1	4	315	0.00	30.030 
09:30	21.1	21.1	21.1	84	17.0	1	3	0	0.00	30.036 
09:35	21.1	21.1	21.1	84	17.0	1	5	338	0.00	30.036 
09:40	21.1	21.1	21.1	84	17.0	1	4	270	0.00	30.036 
09:45	21.1	21.1	21.1	84	17.0	1	4	315	0.00	30.036 
09:50	21.3	21.3	21.3	84	17.2	1	3	338	0.00	30.036 
09:55	21.4	21.4	21.4	83	17.1	1	3	248	0.00	30.036 
10:00	21.4	21.4	21.4	83	17.1	1	3	248	0.00	30.043 
10:05	21.6	21.6	21.6	83	17.3	1	7	248	0.00	30.043 
10:10	21.6	21.6	21.6	82	17.0	2	4	315	0.00	30.043 
10:15	21.6	21.6	21.6	82	17.0	2	5	270	0.00	30.051 
10:20	21.6	21.6	21.6	81	16.7	1	5	315	0.00	30.051 
10:25	21.8	21.8	21.8	81	16.9	1	4	315	0.00	30.051 
10:30	21.9	21.9	21.9	80	16.7	1	3	315	0.00	30.059 
10:35	21.9	21.9	21.9	80	16.7	2	5	338	0.00	30.059 
10:40	22.2	22.2	22.2	79	16.7	2	5	338	0.00	30.059 
10:45	22.5	22.5	22.5	78	16.7	2	4	292	0.00	30.063 
10:50	22.5	22.5	22.5	77	16.4	2	6	315	0.00	30.063 
10:55	22.5	22.5	22.5	76	16.1	3	9	292	0.00	30.063 
11:00	22.5	22.5	22.5	76	16.1	2	8	0	0.00	30.071 
11:05	22.7	22.7	22.7	75	16.0	2	7	292	0.00	30.071 
11:10	23.0	23.0	23.0	76	16.6	2	4	315	0.00	30.071 
11:15	23.3	23.3	23.3	75	16.6	1	5	315	0.00	30.078 
11:20	23.5	23.5	23.5	74	16.5	2	7	315	0.00	30.078 
11:25	23.5	23.5	23.5	74	16.5	2	6	292	0.00	30.078 
11:30	23.8	23.8	23.8	74	16.7	2	7	315	0.00	30.081 
11:35	23.9	23.9	23.9	74	16.8	2	6	315	0.00	30.081 
11:40	23.8	23.8	23.8	73	16.4	3	9	270	0.00	30.081 
11:45	23.9	23.9	23.9	74	16.8	1	5	315	0.00	30.093 
11:50	23.9	23.9	23.9	73	16.5	2	6	270	0.00	30.093 
11:55	23.8	23.8	23.8	73	16.4	3	7	338	0.00	30.093 
12:00	23.6	23.6	23.6	73	16.2	3	7	338	0.00	30.109 
12:05	23.6	23.6	23.6	73	16.2	1	4	292	0.00	30.109 
12:10	23.8	23.8	23.8	73	16.4	3	6	315	0.00	30.109 
12:15	23.9	23.9	23.9	72	16.2	2	5	292	0.00	30.112 
12:20	24.1	24.1	24.1	72	16.4	1	5	270	0.00	30.112 
12:25	24.2	24.2	24.2	72	16.5	2	6	292	0.00	30.112 
12:30	24.5	24.5	24.5	72	16.8	2	7	292	0.00	30.104 
12:35	25.0	25.0	25.0	72	17.3	2	5	0	0.00	30.104 
12:40	25.3	25.3	25.3	70	16.9	2	5	270	0.00	30.104 
12:45	25.6	25.6	25.6	69	16.9	1	4	338	0.00	30.103 
12:50	25.7	25.7	25.7	68	16.6	2	6	292	0.00	30.103 
12:55	25.8	25.8	25.8	68	16.7	3	7	315	0.00	30.103 
13:00	25.8	25.8	25.8	68	16.7	3	7	292	0.00	30.106 
13:05	25.8	25.8	25.8	67	16.4	2	6	315	0.00	30.106 
13:10	25.8	25.8	25.8	67	16.4	2	6	315	0.00	30.106 
13:15	26.1	26.1	26.1	68	17.0	2	5	292	0.00	30.105 
13:20	26.4	26.4	26.4	67	17.0	1	4	292	0.00	30.105 
13:25	26.4	26.4	26.4	67	17.0	2	5	0	0.00	30.105 
13:30	26.6	26.6	26.6	67	17.1	2	4	338	0.00	30.104 
13:35	26.6	26.6	26.6	66	16.8	2	6	270	0.00	30.104 
13:40	26.6	26.6	26.6	66	16.8	2	5	315	0.00	30.104 
13:45	26.3	26.3	26.3	66	16.5	3	7	338	0.00	30.107 
13:50	26.1	26.1	26.1	65	16.0	3	6	292	0.00	30.107 
13:55	26.4	26.4	26.4	66	16.6	1	5	292	0.00	30.107 
14:00	26.6	26.6	26.6	65	16.4	2	5	292	0.00	30.113 
14:05	26.9	26.9	26.9	65	16.7	1	5	292	0.00	30.113 
14:10	26.7	26.7	26.7	64	16.2	3	7	338	0.00	30.113 
14:15	26.7	26.7	26.7	64	16.2	3	7	338	0.00	30.120 
14:20	26.7	26.7	26.7	65	16.5	2	6	338	0.00	30.120 
14:25	27.0	27.0	27.0	65	16.8	2	5	270	0.00	30.120 
14:30	27.0	27.0	27.0	65	16.8	3	7	270	0.00	30.122 
14:35	26.9	26.9	26.9	65	16.7	2	4	270	0.00	30.122 
14:40	26.9	26.9	26.9	67	17.4	2	5	270	0.00	30.122 
14:45	26.9	26.9	26.9	66	17.1	1	4	270	0.00	30.131 
14:50	27.0	27.0	27.0	67	17.5	1	3	292	0.00	30.131 
14:55	27.3	27.3	27.3	67	17.8	1	3	248	0.00	30.131 
15:00	27.5	27.5	27.5	66	17.7	1	2	248	0.00	30.135 
15:05	27.6	27.6	27.6	66	17.8	1	4	315	0.00	30.135 
15:10	27.8	27.8	27.8	66	17.9	1	3	292	0.00	30.135 
15:15	27.6	27.6	27.6	66	17.8	2	5	270	0.00	30.139 
15:20	27.5	27.5	27.5	66	17.7	1	4	270	0.00	30.139 
15:25	27.5	27.5	27.5	67	18.0	1	4	315	0.00	30.139 
15:30	27.3	27.3	27.3	67	17.8	2	6	315	0.00	30.152 
15:35	27.2	27.2	27.2	68	18.1	1	3	315	0.00	30.152 
15:40	27.3	27.3	27.3	69	18.5	1	2	315	0.00	30.152 
15:45	27.3	27.3	27.3	69	18.5	1	4	315	0.00	30.149 
15:50	27.3	27.3	27.3	69	18.5	1	3	270	0.00	30.149 
15:55	27.3	27.3	27.3	69	18.5	1	3	292	0.00	30.149 
16:00	27.3	27.3	27.3	69	18.5	1	2	292	0.00	30.160 
16:05	27.2	27.2	27.2	70	18.7	1	3	292	0.00	30.160 
16:10	27.2	27.2	27.2	71	19.1	1	3	292	0.00	30.160 
16:15	27.3	27.3	27.3	71	19.2	0	2	292	0.00	30.169 
16:20	27.3	27.3	27.3	72	19.5	1	3	292	0.00	30.169 
16:25	27.2	27.2	27.2	73	19.7	1	3	248	0.00	30.169 
16:30	27.3	27.3	27.3	73	19.8	0	2	248	0.00	30.179 
16:35	27.2	27.2	27.2	73	19.7	1	4	292	0.00	30.179 
16:40	27.0	27.0	27.0	73	19.5	0	3	315	0.00	30.179 
16:45	27.0	27.0	27.0	73	19.5	1	2	315	0.00	30.185 
16:50	27.0	27.0	27.0	73	19.5	0	2	315	0.00	30.185 
16:55	27.0	27.0	27.0	71	18.9	1	3	315	0.00	30.185 
17:00	27.0	27.0	27.0	69	18.2	2	5	338	0.00	30.197 
17:05	27.2	27.2	27.2	68	18.1	1	3	315	0.00	30.197 
17:10	27.2	27.2	27.2	68	18.1	0	2	315	0.00	30.197 
17:15	27.2	27.2	27.2	69	18.4	0	2	315	0.00	30.202 
17:20	27.3	27.3	27.3	69	18.5	1	3	270	0.00	30.202 
17:25	27.2	27.2	27.2	69	18.4	1	3	270	0.00	30.202 
17:30	27.2	27.2	27.2	69	18.4	0	2	292	0.00	30.210 
17:35	27.0	27.0	27.0	69	18.2	1	5	292	0.00	30.210 
17:40	26.9	26.9	26.9	69	18.1	0	2	292	0.00	30.210 
17:45	26.7	26.7	26.7	70	18.3	0	3	292	0.00	30.217 
17:50	26.6	26.6	26.6	70	18.2	0	2	292	0.00	30.217 
17:55	26.6	26.6	26.6	70	18.2	0	2	292	0.00	30.217 
18:00	26.4	26.4	26.4	70	18.0	0	1	292	0.00	30.232 
18:05	26.4	26.4	26.4	71	18.3	0	3	315	0.00	30.232 
18:10	26.3	26.3	26.3	71	18.2	0	3	292	0.00	30.232 
18:15	26.1	26.1	26.1	72	18.3	0	2	292	0.00	30.245 
18:20	26.0	26.0	26.0	72	18.2	0	1	292	0.00	30.245 
18:25	25.8	25.8	25.8	72	18.0	0	1	292	0.00	30.245 
18:30	25.7	25.7	25.7	73	18.3	0	1	292	0.00	30.251 
18:35	25.4	25.4	25.4	73	18.0	0	2	292	0.00	30.251 
18:40	25.3	25.3	25.3	73	17.9	0	2	292	0.00	30.251 
18:45	25.1	25.1	25.1	74	18.0	0	1	292	0.00	30.263 
18:50	25.0	25.0	25.0	74	17.9	0	0	---	0.00	30.263 
18:55	24.8	24.8	24.8	74	17.7	0	0	---	0.00	30.263 
19:00	24.7	24.7	24.7	75	17.9	0	0	---	0.00	30.272 
19:05	24.5	24.5	24.5	75	17.7	0	1	292	0.00	30.272 
19:10	24.5	24.5	24.5	76	18.0	0	0	---	0.00	30.272 
19:15	24.5	24.5	24.5	76	18.0	0	0	---	0.00	30.279 
19:20	24.5	24.5	24.5	76	18.0	0	0	---	0.00	30.279 
19:25	24.4	24.4	24.4	76	17.9	0	0	---	0.00	30.279 
19:30	24.2	24.2	24.2	76	17.7	0	0	---	0.00	30.292 
19:35	24.1	24.1	24.1	76	17.7	0	0	---	0.00	30.292 
19:40	23.9	23.9	23.9	76	17.5	0	0	---	0.00	30.292 
19:45	23.6	23.6	23.6	76	17.2	0	0	---	0.00	30.297 
19:50	23.5	23.5	23.5	77	17.4	0	0	---	0.00	30.297 
19:55	23.2	23.2	23.2	77	17.1	0	0	---	0.00	30.297 
20:00	23.0	23.0	23.0	77	16.9	0	0	---	0.00	30.301 
20:05	22.7	22.7	22.7	77	16.6	0	0	---	0.00	30.301 
20:10	22.4	22.4	22.4	78	16.6	0	0	---	0.00	30.301 
20:15	22.1	22.1	22.1	78	16.3	0	0	---	0.00	30.306 
20:20	21.6	21.6	21.6	78	15.8	0	0	---	0.00	30.306 
20:25	21.1	21.1	21.1	78	15.3	0	0	---	0.00	30.306 
20:30	20.6	20.6	20.6	78	14.8	0	0	---	0.00	30.310 
20:35	20.2	20.2	20.2	78	14.5	0	0	---	0.00	30.310 
20:40	19.7	19.7	19.7	79	14.3	0	0	---	0.00	30.310 
20:45	19.2	19.2	19.2	79	13.8	0	0	---	0.00	30.315 
20:50	18.8	18.8	18.8	80	13.7	0	0	---	0.00	30.315 
20:55	18.3	18.3	18.3	80	13.2	0	0	---	0.00	30.315 
21:00	18.0	18.0	18.0	81	13.2	0	0	---	0.00	30.317 
21:05	17.7	17.7	17.7	81	12.9	0	0	---	0.00	30.317 
21:10	17.5	17.5	17.5	81	12.7	0	0	---	0.00	30.317 
21:15	17.3	17.3	17.3	82	12.8	0	0	---	0.00	30.325 
21:20	17.3	17.3	17.3	83	13.0	0	1	292	0.00	30.325 
21:25	17.7	17.7	17.7	84	13.7	0	0	---	0.00	30.325 
21:30	17.8	17.8	17.8	84	13.8	0	1	292	0.00	30.332 
21:35	18.0	18.0	18.0	84	14.0	0	1	292	0.00	30.332 
21:40	18.1	18.1	18.1	83	13.8	0	2	292	0.00	30.332 
21:45	18.3	18.3	18.3	82	13.7	0	1	292	0.00	30.333 
21:50	18.1	18.1	18.1	82	13.5	0	3	292	0.00	30.333 
21:55	18.0	18.0	18.0	81	13.2	0	3	68	0.00	30.333 
22:00	18.0	18.0	18.0	81	13.2	0	3	68	0.00	30.332 
22:05	17.8	17.8	17.8	80	12.7	0	3	68	0.00	30.332 
22:10	17.7	17.7	17.7	79	12.3	1	3	68	0.00	30.332 
22:15	17.5	17.5	17.5	78	11.8	0	3	68	0.00	30.330 
22:20	17.2	17.2	17.2	78	11.5	1	3	68	0.00	30.330 
22:25	17.2	17.2	17.2	78	11.5	1	3	68	0.00	30.330 
22:30	17.2	17.2	17.2	77	11.3	1	4	90	0.00	30.332 
22:35	17.0	17.0	17.0	77	11.1	1	4	90	0.00	30.332 
22:40	16.7	16.7	16.7	77	10.8	1	3	90	0.00	30.332 
22:45	16.5	16.5	16.5	76	10.3	0	2	90	0.00	30.337 
22:50	16.4	16.4	16.4	76	10.2	0	2	90	0.00	30.337 
22:55	16.1	16.1	16.1	76	9.9	0	2	90	0.00	30.337 
23:00	15.9	15.9	15.9	76	9.7	0	1	90	0.00	30.340 
23:05	15.4	15.4	15.4	76	9.2	0	1	90	0.00	30.340 
23:10	15.1	15.1	15.1	77	9.2	0	1	90	0.00	30.340 
23:15	15.1	15.1	15.1	77	9.2	0	1	90	0.00	30.340 
23:20	15.1	15.1	15.1	78	9.5	0	2	90	0.00	30.340 
23:25	15.2	15.2	15.2	78	9.6	0	3	90	0.00	30.340 
23:30	15.2	15.2	15.2	77	9.3	0	2	90	0.00	30.345 
23:35	15.1	15.1	15.1	77	9.2	0	1	90	0.00	30.345 
23:40	15.1	15.1	15.1	77	9.2	0	2	90	0.00	30.345 
23:45	14.9	14.9	14.9	78	9.3	1	3	90	0.00	30.338 
23:50	14.9	14.9	14.9	77	9.0	1	3	90	0.00	30.338 
23:55	14.8	14.8	14.8	77	8.9	0	2	90	0.00	30.338 

CoCoRaHS
IN-AL-39
A2 Web Hosting
Creative Commons License
GoDaddy
search engine by freefind advanced

loaded 2018-11-17 06:27:58 • last modified 2010-11-18 10:43:29
Privacy PolicyDisclaimer
• wx.awcolley.com is powered by PmWiki v.2002016 •
• all content (unless otherwise noted) © 2018 A W Colley